createdAt,value
2022-10-31T00:01:32.790Z,8.85
2022-10-31T00:04:01.668Z,10.07
2022-10-31T00:06:30.229Z,13.15
2022-10-31T00:09:02.117Z,9.40
2022-10-31T00:11:36.464Z,9.02
2022-10-31T00:14:04.276Z,8.75
2022-10-31T00:16:34.638Z,9.70
2022-10-31T00:19:06.644Z,9.65
2022-10-31T00:21:36.807Z,10.35
2022-10-31T00:24:05.919Z,8.32
2022-10-31T00:26:33.458Z,8.68
2022-10-31T00:29:01.492Z,11.43
2022-10-31T00:31:29.643Z,9.10
2022-10-31T00:33:59.695Z,8.82
2022-10-31T00:36:27.242Z,12.43
2022-10-31T00:38:54.448Z,8.55
2022-10-31T00:41:22.145Z,11.00
2022-10-31T00:43:49.384Z,10.73
2022-10-31T00:46:16.856Z,10.82
2022-10-31T00:48:44.183Z,12.55
2022-10-31T00:51:11.752Z,7.80
2022-10-31T00:53:39.203Z,11.45
2022-10-31T00:56:06.874Z,8.20
2022-10-31T00:58:34.475Z,8.68
2022-10-31T01:01:01.778Z,11.57
2022-10-31T01:03:31.796Z,6.82
2022-10-31T01:06:01.175Z,8.85
2022-10-31T01:08:32.161Z,10.77
2022-10-31T01:11:02.496Z,10.98
2022-10-31T01:13:30.112Z,9.65
2022-10-31T01:16:02.188Z,9.98
2022-10-31T01:18:29.985Z,10.68
2022-10-31T01:21:07.769Z,7.68
2022-10-31T01:23:38.862Z,7.85
2022-10-31T01:26:06.138Z,10.75
2022-10-31T01:28:34.238Z,9.52
2022-10-31T01:31:08.010Z,7.85
2022-10-31T01:33:36.249Z,7.13
2022-10-31T01:36:32.611Z,6.97
2022-10-31T01:39:07.052Z,9.07
2022-10-31T01:41:38.277Z,10.35
2022-10-31T01:44:14.530Z,8.50
2022-10-31T01:46:50.329Z,9.90
2022-10-31T01:49:27.178Z,11.07
2022-10-31T01:52:00.716Z,12.27
2022-10-31T01:54:35.863Z,9.63
2022-10-31T01:57:04.533Z,14.68
2022-10-31T01:59:33.773Z,9.25
2022-10-31T02:02:01.175Z,19.98
2022-10-31T02:04:29.065Z,13.18
2022-10-31T02:07:06.438Z,11.73
2022-10-31T02:09:34.541Z,9.55
2022-10-31T02:12:06.852Z,9.48
2022-10-31T02:14:36.221Z,10.82
2022-10-31T02:17:04.761Z,11.50
2022-10-31T02:19:55.032Z,11.60
2022-10-31T02:22:42.745Z,10.63
2022-10-31T02:25:34.415Z,10.38
2022-10-31T02:28:20.052Z,12.02
2022-10-31T02:31:24.937Z,9.40
2022-10-31T02:34:14.017Z,10.38
2022-10-31T02:37:08.123Z,17.35
2022-10-31T02:39:42.373Z,13.40
2022-10-31T02:42:19.947Z,14.18
2022-10-31T02:45:00.463Z,13.18
2022-10-31T02:47:34.890Z,11.88
2022-10-31T02:50:25.257Z,12.40
2022-10-31T02:52:53.684Z,16.13
2022-10-31T02:55:23.913Z,16.58
2022-10-31T02:57:53.747Z,18.48
2022-10-31T03:00:23.141Z,17.88
2022-10-31T03:03:08.959Z,17.83
2022-10-31T03:06:09.525Z,14.00
2022-10-31T03:08:47.300Z,18.52
2022-10-31T03:11:16.141Z,15.55
2022-10-31T03:13:47.370Z,18.42
2022-10-31T03:16:18.353Z,18.92
2022-10-31T03:19:25.967Z,16.85
2022-10-31T03:21:54.655Z,22.27
2022-10-31T03:24:25.089Z,16.67
2022-10-31T03:26:54.739Z,14.65
2022-10-31T03:29:26.260Z,19.25
2022-10-31T03:32:14.670Z,19.48
2022-10-31T03:34:43.070Z,13.77
2022-10-31T03:37:12.985Z,14.07
2022-10-31T03:39:42.603Z,22.13
2022-10-31T03:42:13.995Z,15.15
2022-10-31T03:44:46.208Z,21.38
2022-10-31T03:47:13.974Z,18.88
2022-10-31T03:49:42.052Z,16.73
2022-10-31T03:52:29.774Z,18.38
2022-10-31T03:55:21.555Z,20.27
2022-10-31T03:58:00.936Z,21.20
2022-10-31T04:00:31.633Z,21.70
2022-10-31T04:03:26.722Z,24.20
2022-10-31T04:05:56.472Z,22.70
2022-10-31T04:08:29.258Z,21.90
2022-10-31T04:10:58.758Z,24.40
2022-10-31T04:13:31.669Z,18.08
2022-10-31T04:15:59.205Z,24.00
2022-10-31T04:18:27.046Z,23.63
2022-10-31T04:21:07.149Z,17.17
2022-10-31T04:23:35.722Z,18.52
2022-10-31T04:26:04.068Z,19.13
2022-10-31T04:28:31.388Z,16.33
2022-10-31T04:30:58.608Z,17.23
2022-10-31T04:33:25.784Z,19.65
2022-10-31T04:35:53.540Z,18.73
2022-10-31T04:38:20.885Z,19.83
2022-10-31T04:40:49.305Z,20.67
2022-10-31T04:43:16.596Z,18.20
2022-10-31T04:45:44.383Z,16.60
2022-10-31T04:48:12.049Z,13.48
2022-10-31T04:50:39.833Z,13.35
2022-10-31T04:53:07.333Z,15.77
2022-10-31T04:55:37.241Z,16.63
2022-10-31T04:58:04.925Z,14.98
2022-10-31T05:00:32.616Z,13.18
2022-10-31T05:03:00.576Z,9.82
2022-10-31T05:05:32.242Z,16.65
2022-10-31T05:08:00.728Z,10.25
2022-10-31T05:10:31.802Z,10.27
2022-10-31T05:13:04.756Z,11.20
2022-10-31T05:15:32.596Z,10.40
2022-10-31T05:18:00.616Z,10.05
2022-10-31T05:20:30.029Z,7.57
2022-10-31T05:22:58.268Z,8.65
2022-10-31T05:25:38.396Z,9.50
2022-10-31T05:28:08.735Z,9.10
2022-10-31T05:30:36.046Z,8.98
2022-10-31T05:33:04.116Z,14.00
2022-10-31T05:35:33.484Z,12.27
2022-10-31T05:38:01.048Z,11.18
2022-10-31T05:40:28.683Z,10.93
2022-10-31T05:42:57.535Z,10.95
2022-10-31T05:45:25.497Z,9.30
2022-10-31T05:47:57.219Z,11.35
2022-10-31T05:50:26.096Z,12.80
2022-10-31T05:52:59.192Z,9.27
2022-10-31T05:55:26.996Z,13.65
2022-10-31T05:57:55.138Z,11.82
2022-10-31T06:00:23.723Z,10.45
2022-10-31T06:02:59.361Z,13.90
2022-10-31T06:05:27.009Z,13.07
2022-10-31T06:07:54.403Z,9.20
2022-10-31T06:10:24.174Z,10.48
2022-10-31T06:12:51.536Z,11.45
2022-10-31T06:15:23.424Z,9.57
2022-10-31T06:18:05.402Z,7.40
2022-10-31T06:20:33.711Z,9.32
2022-10-31T06:23:03.169Z,10.77
2022-10-31T06:25:31.070Z,7.20
2022-10-31T06:27:59.233Z,9.23
2022-10-31T06:30:26.588Z,10.45
2022-10-31T06:32:54.276Z,8.73
2022-10-31T06:35:21.990Z,9.23
2022-10-31T06:37:55.924Z,7.93
2022-10-31T06:40:23.533Z,8.48
2022-10-31T06:43:00.770Z,7.72
2022-10-31T06:45:28.242Z,8.98
2022-10-31T06:48:16.221Z,9.40
2022-10-31T06:50:43.770Z,8.85
2022-10-31T06:55:43.749Z,6.72
2022-10-31T06:58:12.063Z,8.85
2022-10-31T07:00:39.503Z,7.13
2022-10-31T07:03:10.765Z,6.30
2022-10-31T07:05:39.294Z,6.22
2022-10-31T07:08:09.554Z,6.35
2022-10-31T07:10:40.423Z,7.53
2022-10-31T07:13:13.055Z,8.82
2022-10-31T07:15:41.983Z,8.45
2022-10-31T07:18:11.648Z,8.32
2022-10-31T07:20:39.789Z,6.53
2022-10-31T07:23:07.206Z,6.07
2022-10-31T07:25:34.889Z,4.80
2022-10-31T07:28:02.699Z,2.38
2022-10-31T07:30:31.837Z,4.30
2022-10-31T07:32:59.384Z,4.82
2022-10-31T07:35:29.627Z,4.53
2022-10-31T07:37:57.731Z,2.88
2022-10-31T07:40:25.583Z,5.30
2022-10-31T07:42:54.155Z,3.20
2022-10-31T07:45:21.976Z,4.35
2022-10-31T07:47:54.838Z,2.08
2022-10-31T07:50:27.505Z,4.53
2022-10-31T07:53:17.935Z,4.70
2022-10-31T07:58:31.642Z,1.30
2022-10-31T08:01:00.727Z,2.63
2022-10-31T08:03:28.430Z,0.63
2022-10-31T08:05:59.409Z,3.08
2022-10-31T08:08:31.266Z,0.93
2022-10-31T08:11:04.263Z,1.35
2022-10-31T08:13:41.275Z,1.30
2022-10-31T08:16:11.163Z,1.13
2022-10-31T08:18:40.210Z,1.08
2022-10-31T08:21:16.397Z,1.55
2022-10-31T08:23:49.187Z,1.25
2022-10-31T08:26:27.881Z,0.70
2022-10-31T08:29:14.405Z,3.13
2022-10-31T08:31:49.640Z,0.68
2022-10-31T08:34:25.974Z,1.13
2022-10-31T08:37:00.979Z,1.20
2022-10-31T08:39:39.654Z,2.90
2022-10-31T08:42:07.308Z,0.98
2022-10-31T08:44:54.272Z,0.68
2022-10-31T08:47:34.134Z,1.95
2022-10-31T09:10:59.385Z,1.75
2022-10-31T09:13:29.448Z,2.67
2022-10-31T09:16:08.493Z,2.83
2022-10-31T09:23:02.986Z,0.65
2022-10-31T09:25:34.511Z,2.70
2022-10-31T09:28:03.659Z,0.77
2022-10-31T09:30:34.167Z,1.92
2022-10-31T09:33:05.176Z,1.00
2022-10-31T09:35:33.825Z,4.05
2022-10-31T09:38:03.788Z,4.90
2022-10-31T09:40:35.179Z,6.78
2022-10-31T09:43:32.328Z,2.45
2022-10-31T09:46:27.737Z,4.30
2022-10-31T09:49:20.123Z,1.80
2022-10-31T09:51:56.030Z,3.47
2022-10-31T09:54:46.715Z,1.20
2022-10-31T09:57:16.264Z,2.35
2022-10-31T09:59:45.501Z,5.10
2022-10-31T10:02:30.631Z,1.75
2022-10-31T10:05:05.118Z,1.70
2022-10-31T10:07:53.137Z,2.88
2022-10-31T10:10:42.356Z,1.42
2022-10-31T10:13:37.368Z,1.73
2022-10-31T10:16:34.615Z,8.93
2022-10-31T10:19:32.891Z,2.83
2022-10-31T10:22:10.447Z,2.42
2022-10-31T10:24:56.493Z,2.28
2022-10-31T10:27:50.577Z,2.58
2022-10-31T10:30:39.268Z,3.35
2022-10-31T10:33:16.141Z,1.52
2022-10-31T10:35:49.148Z,2.30
2022-10-31T10:38:23.911Z,3.88
2022-10-31T10:40:53.400Z,1.65
2022-10-31T10:43:28.198Z,5.43
2022-10-31T10:46:20.066Z,6.15
2022-10-31T10:49:20.476Z,0.85
2022-10-31T10:55:12.967Z,0.95
2022-10-31T10:57:51.238Z,1.40
2022-10-31T11:00:25.478Z,3.88
2022-10-31T11:02:53.742Z,3.25
2022-10-31T11:05:29.885Z,2.47
2022-10-31T11:07:58.312Z,8.15
2022-10-31T11:10:26.162Z,8.15
2022-10-31T11:13:00.845Z,0.80
2022-10-31T11:15:29.283Z,2.63
2022-10-31T11:17:57.333Z,2.25
2022-10-31T11:20:36.224Z,2.85
2022-10-31T11:23:19.845Z,6.43
2022-10-31T11:26:05.133Z,1.80
2022-10-31T11:28:36.104Z,1.85
2022-10-31T11:31:09.573Z,3.38
2022-10-31T11:36:33.545Z,13.00
2022-10-31T11:39:03.433Z,1.73
2022-10-31T11:41:36.067Z,2.33
2022-10-31T11:44:16.246Z,1.90
2022-10-31T11:46:47.734Z,3.35
2022-10-31T11:49:35.485Z,2.60
2022-10-31T11:52:29.322Z,1.33
2022-10-31T11:54:59.386Z,4.80
2022-10-31T11:57:30.065Z,6.43
2022-10-31T12:00:04.307Z,3.13
2022-10-31T12:02:32.145Z,5.75
2022-10-31T12:05:05.499Z,4.18
2022-10-31T12:07:32.908Z,2.38
2022-10-31T12:10:13.414Z,7.15
2022-10-31T12:13:18.941Z,2.10
2022-10-31T12:15:53.452Z,3.58
2022-10-31T12:18:54.639Z,2.50
2022-10-31T12:21:29.128Z,2.08
2022-10-31T12:24:15.509Z,3.22
2022-10-31T12:27:03.301Z,2.15
2022-10-31T12:29:38.900Z,5.55
2022-10-31T12:32:31.704Z,6.45
2022-10-31T12:35:30.002Z,3.53
2022-10-31T12:38:03.440Z,1.17
2022-10-31T12:44:16.038Z,4.32
2022-10-31T12:47:14.823Z,3.15
2022-10-31T12:50:19.685Z,12.88
2022-10-31T12:53:09.154Z,2.63
2022-10-31T12:55:50.146Z,4.18
2022-10-31T12:58:45.336Z,21.52
2022-10-31T13:01:28.927Z,6.22
2022-10-31T13:04:03.019Z,4.15
2022-10-31T13:06:44.656Z,5.18
2022-10-31T13:09:38.952Z,2.97
2022-10-31T13:12:11.355Z,5.57
2022-10-31T13:14:45.893Z,3.92
2022-10-31T13:17:25.595Z,1.60
2022-10-31T13:19:58.872Z,4.25
2022-10-31T13:22:32.622Z,1.45
2022-10-31T13:25:13.758Z,3.05
2022-10-31T13:27:55.428Z,3.28
2022-10-31T13:30:25.224Z,2.10
2022-10-31T13:33:06.832Z,2.30
2022-10-31T13:35:39.531Z,2.28
2022-10-31T13:38:18.954Z,2.55
2022-10-31T13:41:17.137Z,6.50
2022-10-31T13:44:00.471Z,3.28
2022-10-31T13:46:36.507Z,3.33
2022-10-31T13:49:04.815Z,3.63
2022-10-31T13:51:35.072Z,3.72
2022-10-31T13:54:24.933Z,25.02
2022-10-31T13:56:53.550Z,3.15
2022-10-31T13:59:27.337Z,1.65
2022-10-31T14:02:00.930Z,3.67
2022-10-31T14:04:39.618Z,3.47
2022-10-31T14:07:10.344Z,7.18
2022-10-31T14:10:07.828Z,6.78
2022-10-31T14:12:39.941Z,7.97
2022-10-31T14:15:27.550Z,1.90
2022-10-31T14:18:05.205Z,2.10
2022-10-31T14:20:44.181Z,15.77
2022-10-31T14:23:41.391Z,4.40
2022-10-31T14:26:31.067Z,7.63
2022-10-31T14:29:01.579Z,5.72
2022-10-31T14:31:35.953Z,2.65
2022-10-31T14:34:24.826Z,3.17
2022-10-31T14:37:06.141Z,15.65
2022-10-31T14:39:47.002Z,7.07
2022-10-31T14:42:53.212Z,6.35
2022-10-31T14:45:32.409Z,3.83
2022-10-31T14:48:24.799Z,5.60
2022-10-31T14:50:59.855Z,13.07
2022-10-31T14:53:50.994Z,5.25
2022-10-31T14:56:27.466Z,10.38
2022-10-31T14:59:00.802Z,5.70
2022-10-31T15:01:37.834Z,3.35
2022-10-31T15:04:23.677Z,5.70
2022-10-31T15:07:25.754Z,3.88
2022-10-31T15:10:04.794Z,10.57
2022-10-31T15:12:35.577Z,17.67
2022-10-31T15:15:23.780Z,4.90
2022-10-31T15:17:57.235Z,7.38
2022-10-31T15:20:38.706Z,4.85
2022-10-31T15:23:06.963Z,13.35
2022-10-31T15:25:36.108Z,7.53
2022-10-31T15:28:17.117Z,2.72
2022-10-31T15:31:04.135Z,4.35
2022-10-31T15:33:50.946Z,4.43
2022-10-31T15:36:29.858Z,4.95
2022-10-31T15:38:59.342Z,4.60
2022-10-31T15:41:54.553Z,6.75
2022-10-31T15:44:27.362Z,6.18
2022-10-31T15:52:41.033Z,3.83
2022-10-31T15:55:11.811Z,10.38
2022-10-31T15:57:44.237Z,12.32
2022-10-31T16:00:34.793Z,6.78
2022-10-31T16:06:05.895Z,7.57
2022-10-31T16:08:36.845Z,6.90
2022-10-31T16:11:08.398Z,5.28
2022-10-31T16:13:38.810Z,6.05
2022-10-31T16:16:34.018Z,16.33
2022-10-31T16:19:06.883Z,6.85
2022-10-31T16:21:39.869Z,9.77
2022-10-31T16:24:19.562Z,4.90
2022-10-31T16:29:43.933Z,8.48
2022-10-31T16:32:32.945Z,6.15
2022-10-31T16:35:13.370Z,21.80
2022-10-31T16:37:42.447Z,6.65
2022-10-31T16:40:20.119Z,12.63
2022-10-31T16:42:50.802Z,8.13
2022-10-31T16:45:23.035Z,5.57
2022-10-31T16:47:50.943Z,7.28
2022-10-31T16:50:22.926Z,5.22
2022-10-31T16:53:12.849Z,9.90
2022-10-31T16:55:54.232Z,8.80
2022-10-31T16:58:31.406Z,7.28
2022-10-31T17:01:02.295Z,11.98
2022-10-31T17:03:31.240Z,8.40
2022-10-31T17:05:58.587Z,6.38
2022-10-31T17:08:26.936Z,4.25
2022-10-31T17:10:58.561Z,8.25
2022-10-31T17:13:30.933Z,5.75
2022-10-31T17:16:02.972Z,8.38
2022-10-31T17:18:31.575Z,8.50
2022-10-31T17:21:00.660Z,7.20
2022-10-31T17:23:30.650Z,6.40
2022-10-31T17:25:58.271Z,7.25
2022-10-31T17:28:27.557Z,6.68
2022-10-31T17:30:56.147Z,6.22
2022-10-31T17:33:24.758Z,6.35
2022-10-31T17:35:52.353Z,6.35
2022-10-31T17:38:20.781Z,7.03
2022-10-31T17:43:30.591Z,7.80
2022-10-31T17:46:15.311Z,10.40
2022-10-31T18:46:54.361Z,5.60
2022-10-31T19:12:35.297Z,6.75
2022-10-31T19:15:02.666Z,4.88
2022-10-31T19:17:30.473Z,6.32
2022-10-31T19:19:58.900Z,5.45
2022-10-31T19:22:26.967Z,5.85
2022-10-31T19:24:54.527Z,8.05
2022-10-31T19:27:22.409Z,9.73
2022-10-31T19:30:03.188Z,4.75
2022-10-31T19:32:31.590Z,5.90
2022-10-31T19:35:01.665Z,6.18
2022-10-31T19:37:29.212Z,8.18
2022-10-31T19:39:58.612Z,6.03
2022-10-31T19:42:26.279Z,8.10
2022-10-31T19:44:56.043Z,9.38
2022-10-31T19:47:30.342Z,9.23
2022-10-31T19:49:58.902Z,10.07
2022-10-31T19:52:26.395Z,10.15
2022-10-31T19:54:54.860Z,11.63
2022-10-31T19:57:48.408Z,11.88
2022-10-31T20:00:11.313Z,10.45
2022-10-31T20:02:39.054Z,8.90
2022-10-31T20:05:14.156Z,7.90
2022-10-31T20:07:47.278Z,10.13
2022-10-31T20:10:14.938Z,8.50
2022-10-31T20:15:27.270Z,10.95
2022-10-31T20:17:56.765Z,7.57
2022-10-31T20:20:25.965Z,18.02
2022-10-31T20:22:55.224Z,11.60
2022-10-31T20:28:26.335Z,13.52
2022-10-31T20:30:55.116Z,16.75
2022-10-31T20:33:24.946Z,12.52
2022-10-31T20:35:52.697Z,11.70
2022-10-31T20:38:20.570Z,9.45
2022-10-31T20:40:48.202Z,17.13
2022-10-31T20:43:16.949Z,11.70
2022-10-31T20:45:45.127Z,14.65
2022-10-31T20:48:13.613Z,11.45
2022-10-31T20:50:41.150Z,10.77
2022-10-31T20:53:08.847Z,11.77
2022-10-31T20:55:48.363Z,14.30
2022-10-31T20:58:17.090Z,9.50
2022-10-31T21:00:45.752Z,11.50
2022-10-31T21:03:14.319Z,13.43
2022-10-31T21:05:42.505Z,14.13
2022-10-31T21:08:10.228Z,10.90
2022-10-31T21:10:39.154Z,18.23
2022-10-31T21:13:07.603Z,12.10
2022-10-31T21:15:34.923Z,13.43
2022-10-31T21:18:03.856Z,18.17
2022-10-31T21:20:31.473Z,17.58
2022-10-31T21:23:01.692Z,18.90
2022-10-31T21:25:29.367Z,20.88
2022-10-31T21:27:56.788Z,21.52
2022-10-31T21:30:24.343Z,33.33
2022-10-31T21:32:52.434Z,27.40
2022-10-31T21:35:19.905Z,30.65
2022-10-31T21:37:47.990Z,33.92
2022-10-31T21:40:15.585Z,25.57
2022-10-31T21:42:43.700Z,28.27
2022-10-31T21:45:11.044Z,27.67
2022-10-31T21:47:39.056Z,29.17
2022-10-31T21:50:06.866Z,28.40
2022-10-31T21:52:34.641Z,29.88
2022-10-31T21:55:01.937Z,31.30
2022-10-31T21:57:33.041Z,34.70
2022-10-31T22:00:00.719Z,27.73
2022-10-31T22:02:28.084Z,25.67
2022-10-31T22:04:55.387Z,25.70
2022-10-31T22:07:22.720Z,26.17
2022-10-31T22:09:51.153Z,28.77
2022-10-31T22:12:19.134Z,30.00
2022-10-31T22:14:48.445Z,34.43
2022-10-31T22:17:16.356Z,30.17
2022-10-31T22:19:44.289Z,31.30
2022-10-31T22:22:17.428Z,26.30
2022-10-31T22:24:47.900Z,25.13
2022-10-31T22:27:15.408Z,21.17
2022-10-31T22:29:45.516Z,20.90
2022-10-31T22:32:12.780Z,22.10
2022-10-31T22:34:41.006Z,23.17
2022-10-31T22:37:09.036Z,24.53
2022-10-31T22:39:39.672Z,19.77
2022-10-31T22:42:08.399Z,18.53
2022-10-31T22:44:35.846Z,17.27
2022-10-31T22:47:03.337Z,17.67
2022-10-31T22:49:31.485Z,16.77
2022-10-31T22:52:03.082Z,15.03
2022-10-31T22:54:31.301Z,15.47
2022-10-31T22:56:58.555Z,16.17
2022-10-31T22:59:25.953Z,12.03
2022-10-31T23:01:54.452Z,11.00
2022-10-31T23:04:22.539Z,24.77
2022-10-31T23:06:55.797Z,16.43
2022-10-31T23:09:23.255Z,9.43
2022-10-31T23:11:50.539Z,15.37
2022-10-31T23:14:23.006Z,11.40
2022-10-31T23:16:55.073Z,12.07
2022-10-31T23:19:27.442Z,11.73
2022-10-31T23:22:04.956Z,9.43
2022-10-31T23:24:38.792Z,13.13
2022-10-31T23:27:30.451Z,9.60
2022-10-31T23:29:59.539Z,11.43
2022-10-31T23:32:35.256Z,12.00
2022-10-31T23:35:05.603Z,10.27
2022-10-31T23:37:35.334Z,13.53
2022-10-31T23:40:03.883Z,8.47
2022-10-31T23:42:31.279Z,8.20
2022-10-31T23:44:58.670Z,5.93
2022-10-31T23:47:31.419Z,11.73
2022-10-31T23:50:01.167Z,4.57
2022-10-31T23:52:29.211Z,6.80
2022-10-31T23:54:56.696Z,5.57
2022-10-31T23:57:24.184Z,8.33
